Time;durP1;ratioP1;P1;durP2;ratioP2;P2;SDS_P1;SDS_P2;PMS_P1;PMS_P2;Temp;Humidity;BMP_temperature;BMP_pressure;BME280_temperature;BME280_humidity;BME280_pressure;Samples;Min_cycle;Max_cycle;Signal;HPM_P1;HPM_P2
2023/11/05 00:02:27;;;;;;;7.10;3.70;;;;;;;15.52;100.00;97384.39;107130;1259;72628;-81
2023/11/05 00:04:54;;;;;;;7.70;3.40;;;;;;;15.48;100.00;97372.84;107657;1253;69057;-81
2023/11/05 00:07:22;;;;;;;11.70;4.00;;;;;;;15.43;100.00;97384.52;109234;1253;71438;-81
2023/11/05 00:09:49;;;;;;;9.40;3.60;;;;;;;15.39;100.00;97368.60;108968;1254;60409;-79
2023/11/05 00:12:17;;;;;;;10.00;3.40;;;;;;;15.34;100.00;97378.52;107905;1253;59216;-80
2023/11/05 00:14:45;;;;;;;6.10;3.20;;;;;;;15.30;100.00;97369.67;108990;1258;72198;-81
2023/11/05 00:17:12;;;;;;;9.50;3.70;;;;;;;15.26;100.00;97374.77;108664;1253;69129;-81
2023/11/05 00:19:41;;;;;;;10.70;4.30;;;;;;;15.22;100.00;97361.70;108483;1253;71458;-80
2023/11/05 00:22:08;;;;;;;10.70;3.50;;;;;;;15.17;100.00;97342.14;108844;1253;60469;-79
2023/11/05 00:24:36;;;;;;;12.80;4.50;;;;;;;15.14;100.00;97337.13;107400;1253;60436;-78
2023/11/05 00:27:04;;;;;;;8.30;4.10;;;;;;;15.11;100.00;97326.65;107514;1253;72605;-81
2023/11/05 00:29:31;;;;;;;9.90;4.10;;;;;;;15.06;100.00;97317.34;107445;1253;70584;-81
2023/11/05 00:31:59;;;;;;;8.70;3.90;;;;;;;15.03;100.00;97330.16;106828;1259;71057;-80
2023/11/05 00:34:27;;;;;;;10.60;4.10;;;;;;;15.01;100.00;97331.31;107287;1254;61702;-81
2023/11/05 00:36:55;;;;;;;7.70;3.90;;;;;;;14.99;100.00;97316.33;107152;1258;60429;-82
2023/11/05 00:39:23;;;;;;;10.00;4.90;;;;;;;14.95;100.00;97313.25;106902;1253;72438;-80
2023/11/05 00:41:51;;;;;;;9.10;4.80;;;;;;;14.93;100.00;97316.51;107228;1253;70320;-81
2023/11/05 00:44:18;;;;;;;9.40;4.20;;;;;;;14.92;100.00;97330.19;107167;1254;71604;-82
2023/11/05 00:46:48;;;;;;;9.70;4.90;;;;;;;14.92;100.00;97314.73;108203;1256;60491;-86
2023/11/05 00:49:16;;;;;;;12.50;4.90;;;;;;;14.93;100.00;97307.52;108063;1253;60436;-88
2023/11/05 00:51:44;;;;;;;7.70;4.20;;;;;;;14.96;100.00;97305.48;107642;1254;72992;-85
2023/11/05 00:54:13;;;;;;;8.10;4.50;;;;;;;14.99;100.00;97299.43;107310;1254;69466;-87
2023/11/05 00:56:41;;;;;;;8.70;5.00;;;;;;;14.99;100.00;97293.98;107116;1263;70847;-89
2023/11/05 00:59:10;;;;;;;10.20;4.90;;;;;;;14.98;100.00;97298.47;107716;1254;61148;-86
2023/11/05 01:01:38;;;;;;;10.10;5.40;;;;;;;15.00;100.00;97285.27;108457;1254;61031;-83
2023/11/05 01:04:07;;;;;;;15.60;5.40;;;;;;;15.03;100.00;97289.46;108929;1253;74058;-88
2023/11/05 01:06:35;;;;;;;14.00;5.50;;;;;;;15.04;100.00;97280.34;109228;1253;70768;-82
2023/11/05 01:09:05;;;;;;;11.40;5.90;;;;;;;15.04;100.00;97280.81;108656;1258;71825;-81
2023/11/05 01:11:34;;;;;;;12.90;5.80;;;;;;;15.03;100.00;97274.55;109297;1253;60937;-82
2023/11/05 01:14:02;;;;;;;13.00;6.30;;;;;;;15.04;100.00;97271.02;108998;1254;60045;-81
2023/11/05 01:16:30;;;;;;;10.70;5.00;;;;;;;15.04;100.00;97272.04;109350;1253;74293;-82
2023/11/05 01:18:58;;;;;;;12.90;5.60;;;;;;;15.02;100.00;97277.70;109029;1253;68929;-81
2023/11/05 01:21:27;;;;;;;14.60;5.60;;;;;;;14.94;100.00;97281.60;109039;1253;71337;-82
2023/11/05 01:23:54;;;;;;;10.40;4.70;;;;;;;14.90;100.00;97270.27;109010;1253;59465;-81
2023/11/05 01:26:22;;;;;;;7.90;4.60;;;;;;;14.84;100.00;97258.42;108433;1254;59374;-83
2023/11/05 01:28:49;;;;;;;10.80;4.20;;;;;;;14.80;100.00;97273.99;108471;1253;72763;-82
2023/11/05 01:31:17;;;;;;;6.70;3.50;;;;;;;14.75;100.00;97291.70;108590;1254;68747;-83
2023/11/05 01:33:46;;;;;;;6.00;2.40;;;;;;;14.70;100.00;97325.09;108045;1254;71639;-82
2023/11/05 01:36:13;;;;;;;2.70;1.40;;;;;;;14.51;100.00;97357.96;108479;1254;61129;-80
2023/11/05 01:38:41;;;;;;;1.20;0.80;;;;;;;13.87;99.26;97378.86;107027;1253;60499;-84
2023/11/05 01:41:09;;;;;;;0.70;0.70;;;;;;;13.01;99.68;97375.35;106699;1258;74314;-82
2023/11/05 01:43:36;;;;;;;1.00;0.70;;;;;;;12.32;100.00;97392.13;106811;1254;68813;-81
2023/11/05 01:46:04;;;;;;;0.70;0.70;;;;;;;11.84;100.00;97408.85;106758;1258;73244;-80
2023/11/05 01:48:32;;;;;;;1.30;0.70;;;;;;;11.47;100.00;97420.17;107632;1253;60807;-78
2023/11/05 01:51:04;;;;;;;0.80;0.60;;;;;;;11.23;100.00;97439.66;107618;1253;60454;-79
2023/11/05 01:53:35;;;;;;;0.60;0.60;;;;;;;11.03;100.00;97451.40;108066;1253;75373;-78
2023/11/05 01:56:02;;;;;;;0.70;0.70;;;;;;;10.87;100.00;97454.86;107716;1253;70244;-80
2023/11/05 01:58:31;;;;;;;0.60;0.60;;;;;;;10.76;100.00;97458.20;106342;1261;70438;-81
2023/11/05 02:00:59;;;;;;;0.50;0.50;;;;;;;10.69;100.00;97447.48;106019;1258;60725;-81
2023/11/05 02:03:26;;;;;;;0.50;0.50;;;;;;;10.65;100.00;97434.25;105717;1254;60561;-81
2023/11/05 02:05:54;;;;;;;0.50;0.50;;;;;;;10.64;100.00;97422.80;105878;1253;72683;-80
2023/11/05 02:08:22;;;;;;;0.60;0.60;;;;;;;10.65;100.00;97431.83;106016;1253;68285;-86
2023/11/05 02:10:50;;;;;;;1.60;0.60;;;;;;;10.63;100.00;97447.79;107071;1253;72733;-84
2023/11/05 02:13:18;;;;;;;0.50;0.50;;;;;;;10.58;100.00;97460.88;106545;1254;60554;-79
2023/11/05 02:15:46;;;;;;;1.10;0.60;;;;;;;10.60;100.00;97466.08;106005;1253;60491;-80
2023/11/05 02:18:14;;;;;;;0.60;0.50;;;;;;;10.61;100.00;97474.52;106504;1255;72645;-78
2023/11/05 02:20:42;;;;;;;0.60;0.60;;;;;;;10.61;100.00;97497.40;105934;1256;70665;-81
2023/11/05 02:23:18;;;;;;;0.50;0.40;;;;;;;10.60;100.00;97516.37;105938;1261;72685;-78
2023/11/05 02:25:46;;;;;;;0.60;0.60;;;;;;;10.55;100.00;97527.91;106887;1253;60419;-78
2023/11/05 02:28:13;;;;;;;0.80;0.60;;;;;;;10.56;100.00;97519.88;106426;1253;60577;-79
2023/11/05 02:30:41;;;;;;;2.10;0.70;;;;;;;10.55;100.00;97520.92;105871;1253;72609;-77
2023/11/05 02:33:10;;;;;;;0.60;0.60;;;;;;;10.50;100.00;97511.38;105660;1253;69263;-79
2023/11/05 02:35:38;;;;;;;0.60;0.60;;;;;;;10.47;100.00;97500.30;105755;1256;72903;-77
2023/11/05 02:38:05;;;;;;;0.80;0.70;;;;;;;10.49;100.00;97504.27;105855;1254;60565;-77
2023/11/05 02:40:33;;;;;;;0.50;0.50;;;;;;;10.51;100.00;97517.13;105834;1254;60566;-77
2023/11/05 02:43:00;;;;;;;0.70;0.70;;;;;;;10.56;100.00;97533.94;105826;1253;72788;-78
2023/11/05 02:45:28;;;;;;;1.80;0.70;;;;;;;10.58;100.00;97551.39;105899;1253;70665;-77
2023/11/05 02:47:55;;;;;;;0.50;0.50;;;;;;;10.55;100.00;97565.40;105812;1253;71453;-80
2023/11/05 02:50:23;;;;;;;2.00;0.50;;;;;;;10.51;100.00;97578.88;105726;1261;60748;-79
2023/11/05 02:52:50;;;;;;;0.60;0.60;;;;;;;10.48;100.00;97588.66;105669;1253;60313;-79
2023/11/05 02:55:18;;;;;;;0.60;0.60;;;;;;;10.41;100.00;97601.32;105709;1259;73974;-81
2023/11/05 02:57:45;;;;;;;0.60;0.60;;;;;;;10.33;100.00;97616.30;105722;1261;69118;-82
2023/11/05 03:00:14;;;;;;;0.80;0.60;;;;;;;10.27;100.00;97624.73;106114;1256;71286;-78
2023/11/05 03:02:41;;;;;;;0.70;0.70;;;;;;;10.23;100.00;97638.36;107668;1258;60362;-83
2023/11/05 03:05:09;;;;;;;0.80;0.80;;;;;;;10.19;100.00;97641.27;107379;1253;60505;-82
2023/11/05 03:07:36;;;;;;;1.60;1.00;;;;;;;10.19;100.00;97647.41;107443;1253;72968;-78
2023/11/05 03:10:04;;;;;;;0.60;0.60;;;;;;;10.19;100.00;97649.17;107293;1253;70217;-80
2023/11/05 03:12:32;;;;;;;0.60;0.60;;;;;;;10.19;100.00;97654.89;107620;1256;72621;-76
2023/11/05 03:15:00;;;;;;;0.70;0.70;;;;;;;10.20;100.00;97665.13;105941;1258;60548;-79
2023/11/05 03:17:27;;;;;;;1.10;0.70;;;;;;;10.19;100.00;97678.52;105862;1253;60678;-80
2023/11/05 03:19:55;;;;;;;0.90;0.60;;;;;;;10.17;100.00;97694.33;105977;1253;74059;-82
2023/11/05 03:22:23;;;;;;;0.70;0.70;;;;;;;10.16;100.00;97708.14;106123;1261;68987;-81
2023/11/05 03:24:51;;;;;;;0.70;0.70;;;;;;;10.11;100.00;97720.42;106019;1260;71611;-81
2023/11/05 03:27:19;;;;;;;0.60;0.60;;;;;;;10.06;100.00;97734.29;105984;1257;60792;-82
2023/11/05 03:29:46;;;;;;;0.50;0.50;;;;;;;10.03;100.00;97750.05;106504;1253;60540;-81
2023/11/05 03:32:14;;;;;;;0.90;0.60;;;;;;;10.01;100.00;97759.05;108740;1253;73969;-79
2023/11/05 03:34:45;;;;;;;1.50;0.50;;;;;;;9.98;100.00;97764.00;108434;1253;70277;-82
2023/11/05 03:37:13;;;;;;;1.20;0.60;;;;;;;9.92;100.00;97770.89;108594;1255;73668;-82
2023/11/05 03:39:40;;;;;;;1.40;0.60;;;;;;;9.89;100.00;97776.83;108238;1253;60463;-84
2023/11/05 03:42:08;;;;;;;0.60;0.60;;;;;;;9.86;100.00;97785.70;105919;1257;60805;-81
2023/11/05 03:44:38;;;;;;;0.80;0.80;;;;;;;9.85;100.00;97782.30;106065;1253;74289;-78
2023/11/05 03:47:05;;;;;;;0.80;0.60;;;;;;;9.82;100.00;97788.84;105949;1253;70390;-82
2023/11/05 03:49:33;;;;;;;1.80;0.90;;;;;;;9.80;100.00;97798.80;106161;1253;71409;-85
2023/11/05 03:52:01;;;;;;;0.60;0.60;;;;;;;9.79;100.00;97808.33;106799;1257;63192;-86
2023/11/05 03:54:29;;;;;;;1.50;0.80;;;;;;;9.78;100.00;97825.67;106485;1260;60532;-86
2023/11/05 03:56:59;;;;;;;0.80;0.80;;;;;;;9.77;100.00;97827.46;106398;1258;73931;-83
2023/11/05 03:59:27;;;;;;;2.10;0.70;;;;;;;9.76;100.00;97825.44;105908;1253;70465;-83
2023/11/05 04:01:55;;;;;;;0.70;0.70;;;;;;;9.76;100.00;97825.23;106669;1253;71758;-84
2023/11/05 04:04:23;;;;;;;0.70;0.70;;;;;;;9.78;100.00;97829.02;106988;1260;60408;-78
2023/11/05 04:06:52;;;;;;;0.70;0.70;;;;;;;9.79;100.00;97831.22;107568;1252;60375;-79
2023/11/05 04:09:19;;;;;;;1.50;0.80;;;;;;;9.80;100.00;97840.46;108470;1253;72843;-80
2023/11/05 04:11:47;;;;;;;0.70;0.70;;;;;;;9.81;100.00;97839.61;106825;1253;70261;-80
2023/11/05 04:14:14;;;;;;;0.80;0.70;;;;;;;9.80;100.00;97840.38;105922;1258;72675;-79
2023/11/05 04:16:42;;;;;;;1.90;0.80;;;;;;;9.81;100.00;97844.42;106088;1253;60682;-79
2023/11/05 04:19:12;;;;;;;2.40;0.80;;;;;;;9.80;100.00;97850.38;105968;1253;60685;-81
2023/11/05 04:21:39;;;;;;;1.10;1.00;;;;;;;9.79;100.00;97856.59;106056;1253;73901;-81
2023/11/05 04:24:07;;;;;;;0.60;0.60;;;;;;;9.81;100.00;97857.89;105971;1253;68929;-81
2023/11/05 04:26:35;;;;;;;0.70;0.60;;;;;;;9.84;100.00;97867.42;106007;1253;71618;-80
2023/11/05 04:29:02;;;;;;;1.00;0.70;;;;;;;9.82;100.00;97881.66;105967;1258;60821;-79
2023/11/05 04:31:30;;;;;;;0.90;0.80;;;;;;;9.81;100.00;97890.61;106850;1258;61418;-85
2023/11/05 04:33:58;;;;;;;0.70;0.60;;;;;;;9.81;100.00;97892.89;107496;1253;73677;-83
2023/11/05 04:36:25;;;;;;;1.80;0.90;;;;;;;9.82;100.00;97888.73;107439;1260;68718;-82
2023/11/05 04:38:54;;;;;;;1.90;0.70;;;;;;;9.84;100.00;97887.58;108863;1253;71495;-83
2023/11/05 04:41:22;;;;;;;1.20;0.90;;;;;;;9.86;100.00;97903.98;106904;1256;60552;-84
2023/11/05 04:43:50;;;;;;;1.60;0.70;;;;;;;9.90;100.00;97913.31;106557;1255;60426;-83
2023/11/05 04:46:18;;;;;;;4.20;3.30;;;;;;;9.92;100.00;97923.25;107483;1253;74302;-83
2023/11/05 04:48:45;;;;;;;3.00;1.60;;;;;;;9.92;100.00;97925.09;108782;1253;70127;-83
2023/11/05 04:51:13;;;;;;;0.90;0.70;;;;;;;9.91;100.00;97926.77;107792;1257;71107;-80
2023/11/05 04:53:40;;;;;;;1.70;0.60;;;;;;;9.94;100.00;97927.86;106185;1261;60732;-81
2023/11/05 04:56:08;;;;;;;0.70;0.70;;;;;;;9.94;100.00;97926.39;105916;1260;60308;-81
2023/11/05 04:58:35;;;;;;;1.00;0.90;;;;;;;9.92;100.00;97933.09;106261;1254;73847;-83
2023/11/05 05:01:04;;;;;;;5.50;4.10;;;;;;;9.89;100.00;97934.25;106812;1256;70803;-80
2023/11/05 05:03:33;;;;;;;3.60;2.20;;;;;;;9.86;100.00;97939.94;106837;1254;73852;-84
2023/11/05 05:06:00;;;;;;;1.30;1.00;;;;;;;9.83;100.00;97947.35;107667;1254;60404;-85
2023/11/05 05:08:28;;;;;;;0.70;0.70;;;;;;;9.82;100.00;97956.25;107859;1253;60431;-85
2023/11/05 05:10:56;;;;;;;0.70;0.60;;;;;;;9.82;100.00;97971.48;108046;1253;72787;-84
2023/11/05 05:13:23;;;;;;;1.00;0.90;;;;;;;9.83;100.00;97986.20;108011;1256;72374;-82
2023/11/05 05:15:50;;;;;;;0.60;0.60;;;;;;;9.82;100.00;97994.44;106905;1256;72776;-80
2023/11/05 05:18:18;;;;;;;0.60;0.60;;;;;;;9.82;100.00;98000.52;105716;1261;60696;-80
2023/11/05 05:20:45;;;;;;;1.10;0.70;;;;;;;9.83;100.00;98000.71;106364;1253;59264;-81
2023/11/05 05:23:13;;;;;;;2.70;0.90;;;;;;;9.85;100.00;98005.42;105968;1253;72541;-84
2023/11/05 05:25:40;;;;;;;0.90;0.80;;;;;;;9.88;100.00;98017.05;106193;1253;70590;-82
2023/11/05 05:28:10;;;;;;;1.90;0.90;;;;;;;9.89;100.00;98019.98;106013;1253;71710;-82
2023/11/05 05:30:37;;;;;;;0.80;0.80;;;;;;;9.88;100.00;98026.11;105754;1253;60503;-82
2023/11/05 05:33:06;;;;;;;1.50;0.90;;;;;;;9.87;100.00;98030.80;105871;1253;60482;-82
2023/11/05 05:35:35;;;;;;;1.10;1.00;;;;;;;9.87;100.00;98033.28;105897;1258;73882;-79
2023/11/05 05:38:02;;;;;;;1.70;0.80;;;;;;;9.86;100.00;98032.19;106402;1253;70316;-80
2023/11/05 05:40:30;;;;;;;1.30;0.80;;;;;;;9.84;100.00;98036.67;107716;1256;72274;-81
2023/11/05 05:42:58;;;;;;;1.00;0.80;;;;;;;9.83;100.00;98042.34;106948;1258;60519;-81
2023/11/05 05:45:26;;;;;;;2.50;0.90;;;;;;;9.84;100.00;98049.20;106395;1258;60444;-82
2023/11/05 05:47:53;;;;;;;0.90;0.80;;;;;;;9.86;100.00;98048.52;105717;1256;72942;-80
2023/11/05 05:50:21;;;;;;;1.10;0.90;;;;;;;9.87;100.00;98052.55;105948;1253;70792;-84
2023/11/05 05:52:48;;;;;;;1.50;0.80;;;;;;;9.88;100.00;98057.93;105694;1260;73146;-80
2023/11/05 05:55:16;;;;;;;2.20;1.00;;;;;;;9.91;100.00;98062.46;105994;1254;61679;-80
2023/11/05 05:57:43;;;;;;;1.80;1.20;;;;;;;9.95;100.00;98065.02;106189;1253;62447;-81
2023/11/05 06:00:12;;;;;;;1.30;0.90;;;;;;;10.01;100.00;98069.27;106859;1253;73808;-81
2023/11/05 06:02:40;;;;;;;1.40;0.80;;;;;;;10.05;100.00;98078.98;107661;1253;68984;-80
2023/11/05 06:05:08;;;;;;;2.00;1.00;;;;;;;10.07;100.00;98085.73;107284;1256;71348;-81
2023/11/05 06:07:36;;;;;;;0.80;0.80;;;;;;;10.10;100.00;98087.35;107003;1253;60546;-81
2023/11/05 06:10:06;;;;;;;1.30;1.00;;;;;;;10.13;100.00;98089.14;106621;1254;60489;-85
2023/11/05 06:12:34;;;;;;;1.90;0.90;;;;;;;10.15;100.00;98092.80;106523;1254;72547;-83
2023/11/05 06:15:02;;;;;;;1.90;1.10;;;;;;;10.19;100.00;98097.51;107388;1253;69707;-85
2023/11/05 06:17:41;;;;;;;1.80;1.00;;;;;;;10.23;100.00;98105.70;107662;1257;71415;-83
2023/11/05 06:20:10;;;;;;;0.70;0.60;;;;;;;10.27;100.00;98110.77;108268;1253;60415;-83
2023/11/05 06:22:38;;;;;;;1.20;0.90;;;;;;;10.30;100.00;98119.76;108906;1253;58989;-84
2023/11/05 06:25:08;;;;;;;2.10;1.10;;;;;;;10.29;100.00;98124.73;107257;1260;72793;-84
2023/11/05 06:27:39;;;;;;;21.10;15.80;;;;;;;10.28;100.00;98130.13;107539;1254;68983;-85
2023/11/05 06:30:08;;;;;;;2.10;1.80;;;;;;;10.26;100.00;98134.77;107598;1261;71510;-83
2023/11/05 06:32:36;;;;;;;1.30;1.00;;;;;;;10.25;100.00;98137.02;108214;1253;60644;-81
2023/11/05 06:35:04;;;;;;;1.10;0.90;;;;;;;10.22;100.00;98139.50;108178;1253;60044;-83
2023/11/05 06:37:32;;;;;;;2.30;1.00;;;;;;;10.20;100.00;98150.66;108694;1253;73875;-83
2023/11/05 06:40:00;;;;;;;1.50;1.00;;;;;;;10.23;99.97;98159.85;108768;1253;69054;-84
2023/11/05 06:42:27;;;;;;;2.60;1.40;;;;;;;10.26;100.00;98165.15;107547;1256;71697;-84
2023/11/05 06:44:55;;;;;;;1.30;0.90;;;;;;;10.28;100.00;98174.41;107605;1253;62459;-81
2023/11/05 06:47:23;;;;;;;2.50;1.30;;;;;;;10.30;100.00;98178.77;106888;1258;60360;-83
2023/11/05 06:49:50;;;;;;;1.00;0.90;;;;;;;10.31;100.00;98177.83;107168;1258;72310;-85
2023/11/05 06:52:18;;;;;;;1.90;1.00;;;;;;;10.35;100.00;98177.23;106749;1253;70123;-85
2023/11/05 06:54:47;;;;;;;1.30;1.10;;;;;;;10.41;100.00;98186.13;107430;1253;72681;-84
2023/11/05 06:57:15;;;;;;;1.90;1.10;;;;;;;10.44;99.96;98192.67;107529;1253;61003;-88
2023/11/05 06:59:43;;;;;;;1.00;0.90;;;;;;;10.48;99.87;98189.67;107581;1254;58317;-87
2023/11/05 07:02:10;;;;;;;1.50;1.00;;;;;;;10.55;100.00;98193.23;106597;1258;72901;-83
2023/11/05 07:04:38;;;;;;;6.10;3.80;;;;;;;10.61;100.00;98198.45;106215;1259;70040;-85
2023/11/05 07:07:06;;;;;;;1.80;1.20;;;;;;;10.63;100.00;98201.52;107199;1259;72393;-86
2023/11/05 07:09:34;;;;;;;2.20;1.10;;;;;;;10.63;99.91;98209.11;106434;1254;61291;-86
2023/11/05 07:12:01;;;;;;;1.90;1.10;;;;;;;10.60;99.90;98213.93;106280;1258;60467;-87
2023/11/05 07:14:29;;;;;;;2.40;1.30;;;;;;;10.65;100.00;98219.52;107153;1254;75875;-84
2023/11/05 07:16:56;;;;;;;1.10;1.00;;;;;;;10.71;99.58;98223.12;108770;1258;69143;-86
2023/11/05 07:19:24;;;;;;;1.20;1.10;;;;;;;10.74;98.95;98219.71;107173;1258;71536;-83
2023/11/05 07:21:55;;;;;;;1.20;1.10;;;;;;;10.78;99.10;98217.10;106060;1256;61729;-84
2023/11/05 07:24:24;;;;;;;3.00;1.20;;;;;;;10.86;99.62;98210.05;106270;1259;60442;-82
2023/11/05 07:26:52;;;;;;;1.10;0.90;;;;;;;10.97;99.56;98208.80;106783;1256;72472;-81
2023/11/05 07:29:20;;;;;;;2.80;1.00;;;;;;;11.06;99.24;98207.52;106771;1256;70054;-82
2023/11/05 07:31:47;;;;;;;2.30;1.10;;;;;;;11.13;97.73;98209.63;105968;1260;71485;-84
2023/11/05 07:34:15;;;;;;;1.60;1.10;;;;;;;11.17;96.12;98210.67;106139;1255;62014;-83
2023/11/05 07:36:43;;;;;;;1.30;1.20;;;;;;;11.14;94.67;98199.27;105659;1257;526823;-82
2023/11/05 07:41:30;;;;;;;3.80;1.50;;;;;;;11.10;96.31;98186.20;104913;1290;600487;-82
2023/11/05 07:43:58;;;;;;;2.50;1.60;;;;;;;11.13;97.32;98187.25;106360;1266;60424;-81
2023/11/05 07:46:26;;;;;;;2.90;1.60;;;;;;;11.21;96.35;98190.42;106607;1266;59108;-82
2023/11/05 07:48:54;;;;;;;1.70;1.40;;;;;;;11.30;96.89;98189.61;106767;1268;70805;-81
2023/11/05 07:51:22;;;;;;;3.20;1.70;;;;;;;11.40;97.56;98195.45;106501;1266;68862;-83
2023/11/05 07:53:50;;;;;;;2.70;1.40;;;;;;;11.49;95.39;98193.87;106724;1267;215488;-82
2023/11/05 07:56:18;;;;;;;2.40;1.70;;;;;;;11.56;96.25;98192.08;106755;1265;60394;-85
2023/11/05 07:58:46;;;;;;;2.50;1.70;;;;;;;11.64;95.98;98192.89;106312;1263;59225;-89
2023/11/05 08:01:13;;;;;;;3.10;1.40;;;;;;;11.71;95.92;98200.06;106567;1263;70779;-88
2023/11/05 08:03:41;;;;;;;2.40;1.40;;;;;;;11.78;94.46;98208.53;105968;1262;70785;-88
2023/11/05 08:06:09;;;;;;;1.70;1.40;;;;;;;11.82;92.63;98205.36;106841;1263;71467;-86
2023/11/05 08:08:36;;;;;;;3.10;1.30;;;;;;;11.84;90.38;98213.86;107134;1260;59736;-87
2023/11/05 08:11:04;;;;;;;2.60;1.40;;;;;;;11.82;89.42;98217.19;106488;1254;59881;-85
2023/11/05 08:13:31;;;;;;;1.60;1.10;;;;;;;11.80;89.10;98215.03;106945;1254;73067;-86
2023/11/05 08:16:01;;;;;;;1.70;1.10;;;;;;;11.80;89.88;98218.67;107042;1253;69343;-86
2023/11/05 08:18:28;;;;;;;1.40;1.10;;;;;;;11.90;90.07;98214.72;107170;1257;72736;-86
2023/11/05 08:20:57;;;;;;;2.80;1.30;;;;;;;11.98;90.62;98215.11;106967;1254;61998;-87
2023/11/05 08:23:25;;;;;;;3.50;1.30;;;;;;;12.12;91.35;98215.69;107181;1254;59730;-85
2023/11/05 08:25:53;;;;;;;3.60;1.60;;;;;;;12.26;89.65;98210.42;106831;1253;75298;-85
2023/11/05 08:28:21;;;;;;;2.00;1.60;;;;;;;12.36;89.39;98207.32;107004;1253;70577;-86
2023/11/05 08:30:53;;;;;;;3.20;1.50;;;;;;;12.48;89.60;98200.92;107461;1254;72482;-86
2023/11/05 08:33:21;;;;;;;3.20;1.40;;;;;;;12.61;89.69;98196.41;108793;1253;59175;-86
2023/11/05 08:35:51;;;;;;;2.00;1.30;;;;;;;12.74;90.04;98196.00;109079;1254;59050;-89
2023/11/05 08:38:19;;;;;;;2.40;1.50;;;;;;;12.90;89.00;98197.08;107757;1256;71442;-87
2023/11/05 08:40:47;;;;;;;2.40;1.60;;;;;;;13.02;87.51;98199.04;107389;1257;68853;-87
2023/11/05 08:43:15;;;;;;;1.90;1.50;;;;;;;13.07;87.55;98203.91;106936;1257;71820;-86
2023/11/05 08:45:42;;;;;;;2.00;1.30;;;;;;;13.14;84.51;98212.09;107100;1257;63501;-88
2023/11/05 08:48:18;;;;;;;2.70;1.50;;;;;;;13.24;83.79;98215.88;108898;1256;58854;-85
2023/11/05 08:50:46;;;;;;;1.50;1.10;;;;;;;13.29;81.70;98223.63;108431;1256;71586;-86
2023/11/05 08:53:15;;;;;;;1.80;1.30;;;;;;;13.34;79.30;98229.52;106749;1257;70656;-85
2023/11/05 08:55:42;;;;;;;1.70;1.10;;;;;;;13.54;79.38;98218.36;108052;1256;71640;-79
2023/11/05 08:58:19;;;;;;;1.50;1.10;;;;;;;13.88;79.78;98204.39;108079;1260;60444;-84
2023/11/05 09:00:47;;;;;;;1.40;1.20;;;;;;;14.28;77.30;98214.92;106896;1256;60769;-83
2023/11/05 09:03:16;;;;;;;2.20;1.50;;;;;;;14.67;75.86;98215.22;106344;1264;71543;-84
2023/11/05 09:05:44;;;;;;;2.00;1.60;;;;;;;15.04;76.40;98213.59;106361;1260;69591;-83
2023/11/05 09:08:14;;;;;;;2.10;1.50;;;;;;;15.53;74.96;98214.12;106624;1258;72624;-85
2023/11/05 09:10:42;;;;;;;2.00;1.40;;;;;;;16.05;74.27;98216.56;106485;1257;60358;-84
2023/11/05 09:13:09;;;;;;;2.10;1.70;;;;;;;16.40;72.89;98218.77;106171;1256;60128;-85
2023/11/05 09:15:37;;;;;;;3.20;1.40;;;;;;;16.61;69.90;98218.73;106580;1255;71781;-82
2023/11/05 09:18:04;;;;;;;1.90;1.70;;;;;;;16.85;70.46;98213.47;106997;1256;68876;-83
2023/11/05 09:20:34;;;;;;;1.60;1.40;;;;;;;17.26;65.28;98215.96;107138;1257;73809;-84
2023/11/05 09:23:04;;;;;;;2.00;1.50;;;;;;;17.55;64.65;98214.95;106963;1256;60106;-83
2023/11/05 09:25:34;;;;;;;2.20;1.40;;;;;;;17.73;63.16;98218.14;106817;1257;59629;-86
2023/11/05 09:28:05;;;;;;;3.20;1.80;;;;;;;17.98;63.87;98218.05;107222;1253;75185;-85
2023/11/05 09:30:35;;;;;;;1.60;1.50;;;;;;;18.31;65.19;98211.11;107069;1259;69162;-84
2023/11/05 09:33:03;;;;;;;3.10;1.80;;;;;;;18.79;64.40;98209.45;106820;1254;74836;-84
2023/11/05 09:35:32;;;;;;;2.90;1.50;;;;;;;19.31;65.00;98206.79;107458;1252;59836;-85
2023/11/05 09:38:02;;;;;;;3.00;1.60;;;;;;;20.02;66.77;98200.13;107290;1255;59541;-82
2023/11/05 09:40:31;;;;;;;3.70;1.70;;;;;;;20.93;64.48;98206.06;107158;1253;71881;-82
2023/11/05 09:43:04;;;;;;;2.90;1.90;;;;;;;21.74;62.19;98208.57;107981;1253;68715;-85
2023/11/05 09:45:35;;;;;;;2.00;1.40;;;;;;;22.46;60.28;98209.85;108271;1256;71417;-85
2023/11/05 09:48:04;;;;;;;1.80;1.50;;;;;;;22.99;54.54;98206.33;108760;1253;59719;-86
2023/11/05 09:50:34;;;;;;;1.70;1.60;;;;;;;23.17;52.67;98203.14;108852;1253;59790;-85
2023/11/05 09:53:10;;;;;;;3.30;1.80;;;;;;;23.08;55.66;98210.70;108348;1253;72220;-85
2023/11/05 09:55:41;;;;;;;2.30;1.90;;;;;;;23.12;54.28;98209.46;107251;1253;70154;-85
2023/11/05 09:58:09;;;;;;;1.90;1.70;;;;;;;23.16;53.31;98203.63;107604;1253;73079;-86
2023/11/05 10:00:37;;;;;;;1.60;1.50;;;;;;;23.33;54.15;98195.20;108954;1253;61003;-85
2023/11/05 10:03:09;;;;;;;1.60;1.50;;;;;;;23.75;55.01;98189.02;108140;1253;59501;-83
2023/11/05 10:05:39;;;;;;;1.50;1.40;;;;;;;24.41;52.09;98188.38;107264;1253;71727;-84
2023/11/05 10:08:08;;;;;;;2.00;1.40;;;;;;;24.80;50.08;98188.38;106453;1257;71275;-81
2023/11/05 10:10:36;;;;;;;2.80;1.60;;;;;;;25.15;51.17;98187.65;106186;1254;71773;-81
2023/11/05 10:13:05;;;;;;;2.30;1.50;;;;;;;25.68;50.70;98184.38;107171;1253;60008;-79
2023/11/05 10:15:36;;;;;;;1.90;1.70;;;;;;;26.29;49.48;98177.35;109258;1252;59129;-82
2023/11/05 10:18:04;;;;;;;2.20;1.70;;;;;;;26.79;48.72;98162.27;109395;1252;72267;-81
2023/11/05 10:20:32;;;;;;;1.70;1.60;;;;;;;27.25;47.76;98160.55;109379;1253;69529;-84
2023/11/05 10:23:05;;;;;;;1.70;1.60;;;;;;;27.69;44.92;98153.05;109443;1253;73622;-83
2023/11/05 10:25:32;;;;;;;3.90;1.90;;;;;;;27.69;41.83;98147.16;109616;1252;58873;-84
2023/11/05 10:28:00;;;;;;;3.30;1.80;;;;;;;27.35;44.38;98146.50;109522;1252;60911;-82
2023/11/05 10:30:31;;;;;;;1.80;1.70;;;;;;;27.46;46.80;98148.21;109483;1253;73980;-82
2023/11/05 10:32:59;;;;;;;2.20;1.70;;;;;;;28.14;45.12;98152.30;109367;1253;69393;-85
2023/11/05 10:35:32;;;;;;;2.20;1.80;;;;;;;28.69;42.92;98158.42;109349;1253;71209;-82
2023/11/05 10:38:00;;;;;;;2.10;1.70;;;;;;;29.06;43.29;98156.20;109438;1253;58577;-83
2023/11/05 10:40:28;;;;;;;2.20;1.90;;;;;;;29.63;42.47;98151.65;109504;1252;59340;-84
2023/11/05 10:42:55;;;;;;;2.00;1.80;;;;;;;30.30;42.29;98148.85;109558;1253;74203;-83
2023/11/05 10:45:24;;;;;;;2.10;1.90;;;;;;;30.98;41.02;98142.34;109523;1253;68819;-82
2023/11/05 10:47:52;;;;;;;2.40;1.70;;;;;;;31.30;38.45;98141.95;109473;1253;71238;-84
2023/11/05 10:50:29;;;;;;;3.10;1.80;;;;;;;31.29;38.26;98136.84;109550;1253;58785;-84
2023/11/05 10:52:58;;;;;;;2.50;1.80;;;;;;;31.19;37.25;98129.05;109466;1252;59803;-83
2023/11/05 10:55:32;;;;;;;1.70;1.60;;;;;;;30.90;36.89;98122.11;109624;1253;71865;-80
2023/11/05 10:58:03;;;;;;;2.30;1.80;;;;;;;30.51;37.58;98132.47;109508;1253;68727;-81
2023/11/05 11:01:03;;;;;;;2.50;1.80;;;;;;;30.25;39.01;98135.30;109383;1253;71286;-80
2023/11/05 11:03:50;;;;;;;2.00;1.90;;;;;;;30.38;39.86;98137.11;109278;1252;59464;-81
2023/11/05 11:06:19;;;;;;;2.10;1.80;;;;;;;30.82;38.55;98130.70;109472;1253;58847;-82
2023/11/05 11:08:59;;;;;;;3.20;1.80;;;;;;;31.12;37.44;98132.95;109563;1251;71807;-81
2023/11/05 11:11:30;;;;;;;2.40;2.20;;;;;;;31.04;37.72;98130.87;109476;1252;70606;-82
2023/11/05 11:13:58;;;;;;;3.20;2.00;;;;;;;30.67;36.37;98132.84;109434;1253;71418;-82
2023/11/05 11:16:54;;;;;;;2.50;2.00;;;;;;;29.75;36.10;98134.20;109444;1254;59232;-85
2023/11/05 11:19:22;;;;;;;2.40;2.20;;;;;;;28.60;36.45;98132.98;108590;1253;59193;-82
2023/11/05 11:22:02;;;;;;;2.40;1.90;;;;;;;28.12;38.42;98122.91;107815;1253;71788;-82
2023/11/05 11:24:40;;;;;;;2.10;1.90;;;;;;;28.47;38.07;98120.81;107728;1252;69141;-81
2023/11/05 11:27:09;;;;;;;2.10;1.90;;;;;;;28.88;37.28;98123.59;107709;1253;73110;-80
2023/11/05 11:29:38;;;;;;;2.00;1.70;;;;;;;28.81;35.43;98132.55;107178;1258;58776;-80
2023/11/05 11:32:06;;;;;;;2.60;1.50;;;;;;;28.34;36.90;98124.79;107724;1256;59562;-80